Union Springs, Alabama
Current Conditions -  °F | °C
As of 8:53 PM on Monday 22 Dec 2014 (Local Time) from KTOI Reporting Station
Overcast Overcast  
Wind Chill: 56°   Ceiling: 400
Heat Index: 56°   Visibility: 7mi
Dew Point: 54°   Wind: 5mph
Humidity: 93%   Direction: 110°ESE
Pressure: 29.85"   Gusts: NA
Location:  32.14°N, 85.71°W
Report Text: KTOI 230253Z AUTO 11004KT 7SM OVC004 13/12 A2985 RMK AO2 SLP108 T01330122 51006
Loading
Personal Weather Stations






























Interactive Weather Map New forecast layout! Learn more

10-Day Weather Forecast

Advertisements
Track Severe Weather on mobile